GMT,Max TemperatureF,Mean TemperatureF,Min TemperatureF,Max Dew PointF,MeanDew PointF,Min DewpointF,Max Humidity, Mean Humidity, Min Humidity, Max Sea Level PressureIn, Mean Sea Level PressureIn, Min Sea Level PressureIn, Max VisibilityMiles, Mean VisibilityMiles, Min VisibilityMiles, Max Wind SpeedMPH, Mean Wind SpeedMPH, Max Gust SpeedMPH,PrecipitationIn, CloudCover, Events, WindDirDegrees
2013-10-1,62,60,59,61,60,59,100,99,94,29.65,29.61,29.59,3,1,0,21,12,29,0.28,6,Fog-Rain,154
2013-10-2,64,62,60,63,61,59,100,96,88,29.74,29.69,29.65,4,2,0,20,13,31,0.02,7,Fog-Rain,188
2013-10-3,65,62,58,63,60,59,100,95,87,29.74,29.59,29.50,6,3,0,16,11,28,0.31,5,Fog-Rain,150
2013-10-4,63,59,55,61,58,54,100,93,82,30.04,29.82,29.53,10,5,1,16,12,24,0.00,5,Fog-Rain,262
2013-10-5,63,58,53,56,54,51,100,87,68,30.28,30.18,30.04,16,8,5,8,6,,0.00,5,Fog,249
2013-10-6,63,57,51,61,58,54,100,96,88,30.32,30.29,30.27,9,3,0,7,5,,0.00,6,Fog,227
2013-10-7,65,62,59,61,60,57,100,96,85,30.30,30.27,30.24,12,2,0,10,8,,0.00,6,Fog,217
2013-10-8,62,60,57,61,60,57,100,99,94,30.35,30.30,30.27,4,1,0,12,7,,0.04,7,Fog-Rain,254
2013-10-9,59,56,51,57,51,45,100,83,62,30.32,30.24,30.15,16,6,2,15,8,28,0.01,6,Rain,334
2013-10-10,56,51,44,46,41,39,93,69,45,30.29,30.23,30.18,19,8,4,17,12,,0.01,3,Rain,32
2013-10-11,60,50,41,50,43,37,88,71,45,30.27,30.18,30.15,19,8,6,25,13,39,0.00,3,,42
2013-10-12,60,54,48,52,48,45,87,79,66,30.17,30.09,30.06,12,7,6,23,15,38,0.00,4,,50
2013-10-13,59,52,46,54,50,46,100,88,74,30.10,29.99,29.95,12,6,2,10,6,,0.03,7,Rain,311
2013-10-14,57,52,46,52,49,43,100,88,64,29.94,29.89,29.86,12,7,3,9,6,,0.02,5,Rain,306
2013-10-15,57,48,40,52,48,41,100,88,75,29.90,29.84,29.80,12,7,2,17,8,,0.01,6,Rain,103
2013-10-16,61,56,52,57,55,53,100,90,73,29.92,29.78,29.59,9,4,2,21,17,36,0.00,4,Rain,230
2013-10-17,62,59,56,59,58,55,100,96,84,29.99,29.95,29.89,4,2,0,20,13,31,0.01,5,Fog,222
2013-10-18,60,58,56,59,54,52,100,89,76,29.96,29.74,29.59,7,4,0,25,14,40,0.08,7,Fog-Rain,155
2013-10-19,61,58,55,59,56,51,100,91,79,29.60,29.57,29.53,12,4,1,21,16,32,0.02,5,Rain,203
2013-10-20,60,56,52,57,54,50,96,87,77,29.72,29.59,29.50,11,6,1,23,19,41,0.31,5,Rain-Thunderstorm,218
2013-10-21,60,58,56,59,58,55,100,97,91,29.71,29.53,29.42,5,2,1,28,19,46,0.12,8,Rain,197
2013-10-22,62,58,55,59,57,54,100,93,86,29.41,29.25,29.15,7,5,2,22,17,40,0.04,6,Rain,192
2013-10-23,60,56,53,55,52,50,100,86,63,29.83,29.54,29.18,12,7,3,22,14,39,0.02,3,Rain,254
2013-10-24,60,54,49,57,56,52,100,97,82,29.85,29.74,29.50,9,3,0,23,12,40,0.02,6,Fog-Rain,136
2013-10-25,61,59,57,59,56,55,100,90,77,29.64,29.54,29.47,6,4,1,24,19,40,0.00,6,Rain,203
2013-10-26,59,55,51,57,54,51,100,91,75,29.72,29.61,29.47,11,5,1,29,17,44,0.20,6,Rain,227
2013-10-27,59,54,50,59,51,46,100,85,66,29.54,29.43,29.09,9,4,1,34,21,67,0.94,6,Rain,241
2013-10-28,55,52,50,59,47,41,100,78,58,29.74,29.45,29.00,16,6,1,34,24,58,0.08,4,Rain,277
2013-10-29,55,50,46,45,43,41,87,76,51,30.13,29.98,29.77,12,7,5,15,11,24,0.08,3,Rain,296
2013-10-30,57,52,46,55,50,44,100,87,71,30.15,30.08,30.01,12,6,2,25,12,39,0.04,5,Rain,230
2013-10-31,55,52,50,54,52,46,100,92,77,30.08,30.02,29.95,11,6,2,24,10,38,0.01,7,Rain,242